createdAt,value
2023-07-18T00:01:45.313Z,101702.84
2023-07-18T00:04:13.541Z,101703.50
2023-07-18T00:06:43.105Z,101702.50
2023-07-18T00:09:10.891Z,101704.66
2023-07-18T00:11:38.672Z,101697.69
2023-07-18T00:14:08.262Z,101696.72
2023-07-18T00:16:36.226Z,101695.81
2023-07-18T00:19:04.235Z,101697.00
2023-07-18T00:21:32.481Z,101697.88
2023-07-18T00:24:00.674Z,101696.88
2023-07-18T00:26:28.685Z,101703.00
2023-07-18T00:28:56.867Z,101702.91
2023-07-18T00:31:26.237Z,101702.13
2023-07-18T00:33:54.094Z,101704.38
2023-07-18T00:36:23.069Z,101706.03
2023-07-18T00:38:51.339Z,101696.81
2023-07-18T00:41:19.381Z,101699.31
2023-07-18T00:43:47.381Z,101702.16
2023-07-18T00:46:16.941Z,101706.41
2023-07-18T00:48:46.564Z,101713.06
2023-07-18T00:51:14.618Z,101711.84
2023-07-18T00:53:43.095Z,101710.34
2023-07-18T00:56:11.051Z,101708.75
2023-07-18T00:58:38.969Z,101703.97
2023-07-18T01:01:07.972Z,101700.94
2023-07-18T01:03:38.740Z,101701.66
2023-07-18T01:06:08.422Z,101697.28
2023-07-18T01:08:37.088Z,101694.66
2023-07-18T01:11:06.764Z,101693.88
2023-07-18T01:13:34.718Z,101702.59
2023-07-18T01:16:02.794Z,101693.78
2023-07-18T01:18:30.538Z,101703.00
2023-07-18T01:20:59.434Z,101695.94
2023-07-18T01:23:30.040Z,101697.94
2023-07-18T01:25:58.782Z,101686.31
2023-07-18T01:28:26.650Z,101693.19
2023-07-18T01:30:56.362Z,101693.59
2023-07-18T01:33:24.204Z,101689.41
2023-07-18T01:35:52.818Z,101700.28
2023-07-18T01:38:20.533Z,101696.28
2023-07-18T01:40:51.076Z,101692.78
2023-07-18T01:43:18.865Z,101683.28
2023-07-18T01:45:46.609Z,101683.28
2023-07-18T01:48:14.438Z,101677.78
2023-07-18T01:54:55.613Z,101671.38
2023-07-18T01:57:27.097Z,101663.22
2023-07-18T01:59:55.396Z,101668.66
2023-07-18T02:02:23.661Z,101669.91
2023-07-18T02:04:51.501Z,101660.34
2023-07-18T02:07:19.442Z,101668.16
2023-07-18T02:09:47.667Z,101665.75
2023-07-18T02:12:15.453Z,101660.03
2023-07-18T02:14:44.648Z,101677.28
2023-07-18T02:17:12.606Z,101680.50
2023-07-18T02:19:41.384Z,101673.91
2023-07-18T02:22:09.566Z,101666.53
2023-07-18T02:24:37.929Z,101656.94
2023-07-18T02:27:06.697Z,101653.63
2023-07-18T02:29:34.688Z,101645.59
2023-07-18T02:32:04.113Z,101642.78
2023-07-18T02:34:31.923Z,101638.50
2023-07-18T02:36:59.805Z,101645.28
2023-07-18T02:39:31.471Z,101636.69
2023-07-18T02:41:59.475Z,101639.88
2023-07-18T02:44:27.873Z,101648.22
2023-07-18T02:46:55.703Z,101642.88
2023-07-18T02:49:25.120Z,101637.28
2023-07-18T02:51:54.472Z,101646.28
2023-07-18T02:54:22.428Z,101645.31
2023-07-18T02:56:50.519Z,101652.19
2023-07-18T02:59:21.986Z,101648.59
2023-07-18T03:01:51.144Z,101655.47
2023-07-18T03:04:19.068Z,101648.81
2023-07-18T03:06:52.399Z,101641.13
2023-07-18T03:09:22.631Z,101643.66
2023-07-18T03:11:52.066Z,101645.50
2023-07-18T03:14:20.694Z,101654.81
2023-07-18T03:16:49.054Z,101649.09
2023-07-18T03:19:16.886Z,101641.00
2023-07-18T03:21:45.805Z,101635.41
2023-07-18T03:24:14.964Z,101642.97
2023-07-18T03:26:42.984Z,101643.34
2023-07-18T03:29:10.799Z,101625.91
2023-07-18T03:31:40.680Z,101625.72
2023-07-18T03:34:08.705Z,101630.38
2023-07-18T03:36:38.340Z,101639.47
2023-07-18T03:39:07.115Z,101634.25
2023-07-18T03:41:36.556Z,101642.19
2023-07-18T03:44:05.308Z,101640.16
2023-07-18T03:46:33.306Z,101640.53
2023-07-18T03:49:01.079Z,101640.84
2023-07-18T03:51:30.536Z,101636.38
2023-07-18T03:54:02.235Z,101636.38
2023-07-18T03:56:32.322Z,101651.69
2023-07-18T03:59:02.094Z,101643.56
2023-07-18T04:01:29.909Z,101651.59
2023-07-18T04:03:57.683Z,101642.78
2023-07-18T04:06:25.570Z,101639.66
2023-07-18T04:08:55.321Z,101631.13
2023-07-18T04:11:23.326Z,101627.44
2023-07-18T04:13:51.226Z,101630.94
2023-07-18T04:16:20.442Z,101625.31
2023-07-18T04:18:48.320Z,101630.53
2023-07-18T04:21:16.326Z,101631.25
2023-07-18T04:23:44.233Z,101626.09
2023-07-18T04:26:13.808Z,101634.75
2023-07-18T04:28:41.847Z,101635.41
2023-07-18T04:31:09.696Z,101643.06
2023-07-18T04:33:40.826Z,101635.22
2023-07-18T04:36:10.084Z,101646.56
2023-07-18T04:38:39.097Z,101650.91
2023-07-18T04:41:06.850Z,101641.13
2023-07-18T04:43:34.692Z,101650.34
2023-07-18T04:46:02.848Z,101654.03
2023-07-18T04:48:30.785Z,101646.56
2023-07-18T04:51:01.782Z,101641.63
2023-07-18T04:53:30.918Z,101636.56
2023-07-18T04:55:58.981Z,101647.31
2023-07-18T04:58:27.939Z,101643.38
2023-07-18T05:00:58.107Z,101641.13
2023-07-18T05:03:26.660Z,101643.75
2023-07-18T05:05:55.167Z,101639.66
2023-07-18T05:08:24.326Z,101632.53
2023-07-18T05:10:52.393Z,101627.38
2023-07-18T05:13:20.140Z,101624.56
2023-07-18T05:15:47.998Z,101625.63
2023-07-18T05:18:15.689Z,101630.56
2023-07-18T05:20:43.491Z,101623.97
2023-07-18T05:23:11.753Z,101624.84
2023-07-18T05:25:41.253Z,101632.22
2023-07-18T05:28:09.231Z,101624.25
2023-07-18T05:30:37.216Z,101626.47
2023-07-18T05:33:05.105Z,101627.34
2023-07-18T05:35:33.048Z,101632.22
2023-07-18T05:38:02.722Z,101623.78
2023-07-18T05:40:30.563Z,101628.81
2023-07-18T05:42:59.709Z,101622.38
2023-07-18T05:45:27.778Z,101627.69
2023-07-18T05:47:55.759Z,101625.25
2023-07-18T05:50:23.519Z,101633.41
2023-07-18T05:52:51.391Z,101645.06
2023-07-18T05:55:19.509Z,101665.94
2023-07-18T05:57:47.643Z,101673.53
2023-07-18T06:00:18.354Z,101677.91
2023-07-18T06:02:49.070Z,101683.38
2023-07-18T06:05:16.887Z,101676.03
2023-07-18T06:07:44.752Z,101687.16
2023-07-18T06:10:13.752Z,101700.34
2023-07-18T06:12:41.604Z,101711.16
2023-07-18T06:15:10.453Z,101722.25
2023-07-18T06:17:39.690Z,101737.09
2023-07-18T06:20:12.974Z,101734.09
2023-07-18T06:22:40.925Z,101750.19
2023-07-18T06:25:10.069Z,101763.03
2023-07-18T06:27:38.647Z,101780.34
2023-07-18T06:30:09.314Z,101780.13
2023-07-18T06:32:37.050Z,101789.00
2023-07-18T06:35:23.108Z,101793.03
2023-07-18T06:37:52.139Z,101803.47
2023-07-18T06:40:20.226Z,101796.41
2023-07-18T06:42:48.024Z,101810.16
2023-07-18T06:45:16.021Z,101822.34
2023-07-18T06:47:44.701Z,101825.53
2023-07-18T06:50:15.124Z,101829.91
2023-07-18T06:52:43.052Z,101831.34
2023-07-18T06:55:12.154Z,101830.66
2023-07-18T06:57:42.720Z,101828.28
2023-07-18T07:00:14.050Z,101846.38
2023-07-18T07:02:42.144Z,101848.16
2023-07-18T07:05:10.425Z,101847.72
2023-07-18T07:07:39.634Z,101850.00
2023-07-18T07:10:09.810Z,101856.09
2023-07-18T07:12:37.924Z,101862.13
2023-07-18T07:15:06.805Z,101875.31
2023-07-18T07:17:34.886Z,101885.66
2023-07-18T07:20:02.975Z,101890.25
2023-07-18T07:22:30.811Z,101894.72
2023-07-18T07:25:00.416Z,101900.16
2023-07-18T07:27:28.174Z,101899.72
2023-07-18T07:29:55.986Z,101895.72
2023-07-18T07:32:23.813Z,101905.41
2023-07-18T07:34:51.641Z,101898.97
2023-07-18T07:37:19.808Z,101903.97
2023-07-18T07:39:47.955Z,101900.88
2023-07-18T07:42:17.617Z,101899.59
2023-07-18T07:44:47.792Z,101893.00
2023-07-18T07:47:15.553Z,101892.38
2023-07-18T07:49:43.430Z,101888.22
2023-07-18T07:52:11.472Z,101887.50
2023-07-18T07:54:39.406Z,101884.91
2023-07-18T07:57:07.949Z,101880.81
2023-07-18T07:59:37.058Z,101887.03
2023-07-18T08:02:05.245Z,101878.81
2023-07-18T08:04:33.534Z,101898.16
2023-07-18T08:07:01.442Z,101887.34
2023-07-18T08:09:29.357Z,101883.72
2023-07-18T08:11:57.077Z,101888.19
2023-07-18T08:14:24.829Z,101894.06
2023-07-18T08:16:54.185Z,101893.22
2023-07-18T08:19:22.509Z,101894.22
2023-07-18T08:21:50.419Z,101892.78
2023-07-18T08:24:18.610Z,101896.41
2023-07-18T08:26:46.479Z,101897.81
2023-07-18T08:29:14.324Z,101901.16
2023-07-18T08:31:42.217Z,101906.28
2023-07-18T08:34:11.503Z,101896.44
2023-07-18T08:36:40.600Z,101891.56
2023-07-18T08:39:11.819Z,101889.69
2023-07-18T08:41:41.776Z,101897.16
2023-07-18T08:44:10.978Z,101890.06
2023-07-18T08:46:39.135Z,101882.97
2023-07-18T08:49:07.869Z,101881.72
2023-07-18T08:51:37.145Z,101883.56
2023-07-18T08:54:05.126Z,101882.97
2023-07-18T08:56:33.103Z,101881.47
2023-07-18T08:59:02.476Z,101883.13
2023-07-18T09:01:30.368Z,101884.31
2023-07-18T09:03:58.538Z,101873.47
2023-07-18T09:06:26.363Z,101867.13
2023-07-18T09:08:56.263Z,101868.69
2023-07-18T09:11:25.798Z,101867.94
2023-07-18T09:13:53.723Z,101860.25
2023-07-18T09:16:23.129Z,101852.78
2023-07-18T09:18:52.378Z,101852.16
2023-07-18T09:21:21.035Z,101850.41
2023-07-18T09:23:49.998Z,101849.19
2023-07-18T09:26:20.383Z,101850.94
2023-07-18T09:28:48.634Z,101838.94
2023-07-18T09:31:21.194Z,101841.97
2023-07-18T09:33:50.643Z,101852.66
2023-07-18T09:36:19.659Z,101847.19
2023-07-18T09:38:49.098Z,101849.22
2023-07-18T09:41:21.596Z,101858.66
2023-07-18T09:44:02.733Z,101856.06
2023-07-18T09:46:42.426Z,101849.81
2023-07-18T09:49:14.835Z,101853.41
2023-07-18T09:51:49.629Z,101851.34
2023-07-18T09:54:18.055Z,101850.50
2023-07-18T09:56:48.778Z,101851.38
2023-07-18T09:59:17.681Z,101856.16
2023-07-18T10:01:46.627Z,101844.59
2023-07-18T10:04:15.094Z,101857.16
2023-07-18T10:06:43.408Z,101840.41
2023-07-18T10:09:11.329Z,101836.78
2023-07-18T10:12:12.072Z,101842.63
2023-07-18T10:14:51.281Z,101839.34
2023-07-18T10:17:37.417Z,101840.03
2023-07-18T10:20:12.834Z,101847.34
2023-07-18T10:22:48.483Z,101848.94
2023-07-18T10:25:19.848Z,101842.78
2023-07-18T10:27:50.595Z,101851.44
2023-07-18T10:30:19.895Z,101845.72
2023-07-18T10:32:54.953Z,101840.50
2023-07-18T10:35:25.886Z,101833.69
2023-07-18T10:37:55.120Z,101826.63
2023-07-18T10:40:38.046Z,101824.00
2023-07-18T10:43:10.565Z,101820.94
2023-07-18T10:45:39.598Z,101823.69
2023-07-18T10:48:13.286Z,101804.25
2023-07-18T10:50:41.400Z,101804.25
2023-07-18T10:53:12.555Z,101804.72
2023-07-18T10:55:40.540Z,101794.09
2023-07-18T10:58:17.749Z,101792.81
2023-07-18T11:00:46.027Z,101790.19
2023-07-18T11:03:21.257Z,101783.13
2023-07-18T11:05:50.407Z,101771.91
2023-07-18T11:08:26.495Z,101769.34
2023-07-18T11:10:55.808Z,101765.81
2023-07-18T11:13:30.524Z,101770.41
2023-07-18T11:15:59.647Z,101777.44
2023-07-18T11:18:27.783Z,101773.94
2023-07-18T11:20:55.867Z,101764.50
2023-07-18T11:23:23.794Z,101750.22
2023-07-18T11:25:51.607Z,101749.16
2023-07-18T11:28:19.348Z,101754.03
2023-07-18T11:30:48.701Z,101752.16
2023-07-18T11:33:16.633Z,101747.28
2023-07-18T11:35:48.054Z,101745.84
2023-07-18T11:38:19.715Z,101737.19
2023-07-18T11:40:47.423Z,101735.16
2023-07-18T11:43:18.986Z,101723.59
2023-07-18T11:45:49.118Z,101722.13
2023-07-18T11:48:21.275Z,101731.69
2023-07-18T11:50:50.644Z,101723.63
2023-07-18T11:53:26.524Z,101717.28
2023-07-18T11:55:55.741Z,101716.41
2023-07-18T11:58:25.523Z,101711.81
2023-07-18T12:00:59.520Z,101697.88
2023-07-18T12:03:27.414Z,101715.81
2023-07-18T12:05:55.274Z,101708.16
2023-07-18T12:08:25.718Z,101710.63
2023-07-18T12:11:08.832Z,101704.81
2023-07-18T12:13:38.242Z,101707.22
2023-07-18T12:16:07.752Z,101710.81
2023-07-18T12:18:36.297Z,101698.06
2023-07-18T12:21:04.098Z,101701.13
2023-07-18T12:23:32.155Z,101700.19
2023-07-18T12:26:00.145Z,101711.09
2023-07-18T12:28:28.220Z,101717.63
2023-07-18T12:30:56.035Z,101717.75
2023-07-18T12:33:25.429Z,101729.66
2023-07-18T12:35:53.243Z,101729.44
2023-07-18T12:38:23.337Z,101712.63
2023-07-18T12:40:53.234Z,101673.63
2023-07-18T12:43:21.016Z,101685.97
2023-07-18T12:45:48.782Z,101677.38
2023-07-18T12:48:17.171Z,101679.38
2023-07-18T12:50:47.292Z,101688.09
2023-07-18T12:53:15.102Z,101680.19
2023-07-18T12:55:42.946Z,101679.22
2023-07-18T12:58:10.740Z,101679.91
2023-07-18T13:00:38.642Z,101674.69
2023-07-18T13:03:06.908Z,101681.16
2023-07-18T13:05:34.756Z,101664.56
2023-07-18T13:08:03.796Z,101683.97
2023-07-18T13:10:31.582Z,101665.88
2023-07-18T13:12:59.346Z,101673.63
2023-07-18T13:15:27.177Z,101676.97
2023-07-18T13:17:55.261Z,101667.53
2023-07-18T13:20:23.495Z,101657.81
2023-07-18T13:22:52.161Z,101664.56
2023-07-18T13:25:21.940Z,101662.44
2023-07-18T13:27:49.814Z,101646.53
2023-07-18T13:30:17.989Z,101642.28
2023-07-18T13:32:47.712Z,101635.38
2023-07-18T13:35:15.538Z,101609.75
2023-07-18T13:37:43.292Z,101610.47
2023-07-18T13:40:11.671Z,101608.03
2023-07-18T13:42:40.865Z,101603.31
2023-07-18T13:45:11.231Z,101584.16
2023-07-18T13:47:39.180Z,101587.13
2023-07-18T13:50:17.789Z,101585.22
2023-07-18T13:52:47.077Z,101572.56
2023-07-18T13:55:15.005Z,101575.50
2023-07-18T13:57:44.131Z,101566.13
2023-07-18T14:00:13.191Z,101550.94
2023-07-18T14:02:40.985Z,101547.34
2023-07-18T14:05:10.106Z,101544.47
2023-07-18T14:07:37.821Z,101537.81
2023-07-18T14:10:06.326Z,101523.88
2023-07-18T14:12:34.233Z,101537.69
2023-07-18T14:15:05.099Z,101525.41
2023-07-18T14:17:33.015Z,101530.53
2023-07-18T14:20:01.020Z,101509.94
2023-07-18T14:22:28.917Z,101510.81
2023-07-18T14:24:57.214Z,101494.97
2023-07-18T14:27:25.089Z,101508.97
2023-07-18T14:29:53.195Z,101510.16
2023-07-18T14:32:22.615Z,101500.38
2023-07-18T14:34:50.367Z,101507.22
2023-07-18T14:37:18.729Z,101513.53
2023-07-18T14:39:58.588Z,101508.97
2023-07-18T14:42:26.584Z,101518.47
2023-07-18T14:44:54.524Z,101492.38
2023-07-18T14:47:23.848Z,101506.91
2023-07-18T14:49:52.202Z,101494.91
2023-07-18T14:52:20.238Z,101507.88
2023-07-18T14:54:48.158Z,101491.31
2023-07-18T14:57:16.216Z,101494.41
2023-07-18T14:59:44.704Z,101467.41
2023-07-18T15:02:12.684Z,101489.09
2023-07-18T15:04:42.047Z,101486.25
2023-07-18T15:07:10.429Z,101484.19
2023-07-18T15:09:38.241Z,101487.81
2023-07-18T15:12:06.668Z,101480.28
2023-07-18T15:14:34.538Z,101467.47
2023-07-18T15:17:02.260Z,101455.38
2023-07-18T15:19:30.030Z,101438.53
2023-07-18T15:21:59.376Z,101451.94
2023-07-18T15:24:27.371Z,101436.47
2023-07-18T15:26:55.325Z,101446.06
2023-07-18T15:29:23.261Z,101460.84
2023-07-18T15:31:51.203Z,101475.94
2023-07-18T15:34:19.157Z,101464.22
2023-07-18T15:36:47.408Z,101463.69
2023-07-18T15:39:16.805Z,101467.59
2023-07-18T15:41:44.659Z,101462.84
2023-07-18T15:44:12.605Z,101444.34
2023-07-18T15:46:40.513Z,101444.22
2023-07-18T15:49:08.431Z,101424.91
2023-07-18T15:51:36.319Z,101421.25
2023-07-18T15:54:05.441Z,101456.13
2023-07-18T15:56:34.683Z,101445.00
2023-07-18T15:59:03.121Z,101457.13
2023-07-18T16:01:31.053Z,101458.91
2023-07-18T16:03:58.919Z,101436.03
2023-07-18T16:06:26.922Z,101421.84
2023-07-18T16:08:54.672Z,101403.31
2023-07-18T16:11:22.516Z,101401.94
2023-07-18T16:13:53.377Z,101408.16
2023-07-18T16:16:25.149Z,101395.13
2023-07-18T16:18:54.645Z,101407.66
2023-07-18T16:21:22.572Z,101414.69
2023-07-18T16:23:51.297Z,101412.53
2023-07-18T16:26:20.525Z,101405.81
2023-07-18T16:28:49.683Z,101406.28
2023-07-18T16:31:20.321Z,101403.00
2023-07-18T16:33:48.334Z,101402.47
2023-07-18T16:36:16.172Z,101366.81
2023-07-18T16:38:44.099Z,101398.06
2023-07-18T16:41:12.095Z,101383.94
2023-07-18T16:43:39.895Z,101384.28
2023-07-18T16:46:07.798Z,101380.94
2023-07-18T16:48:37.404Z,101386.78
2023-07-18T16:51:05.449Z,101377.25
2023-07-18T16:53:33.691Z,101379.06
2023-07-18T16:56:02.597Z,101361.56
2023-07-18T16:58:30.319Z,101359.50
2023-07-18T17:00:58.150Z,101367.72
2023-07-18T17:03:26.344Z,101362.31
2023-07-18T17:05:56.396Z,101339.94
2023-07-18T17:08:25.816Z,101339.94
2023-07-18T17:10:54.077Z,101356.91
2023-07-18T17:13:22.529Z,101354.44
2023-07-18T17:15:50.545Z,101341.91
2023-07-18T17:18:19.524Z,101345.53
2023-07-18T17:20:47.308Z,101354.59
2023-07-18T17:23:17.128Z,101346.19
2023-07-18T17:25:45.262Z,101339.00
2023-07-18T17:28:13.695Z,101341.38
2023-07-18T17:30:41.560Z,101330.19
2023-07-18T17:33:09.382Z,101320.03
2023-07-18T17:35:39.235Z,101335.09
2023-07-18T17:38:06.902Z,101323.28
2023-07-18T17:40:36.313Z,101335.25
2023-07-18T17:43:05.344Z,101339.91
2023-07-18T17:45:33.349Z,101311.06
2023-07-18T17:48:01.247Z,101328.00
2023-07-18T17:50:29.135Z,101332.31
2023-07-18T17:52:57.181Z,101332.28
2023-07-18T17:55:25.685Z,101315.69
2023-07-18T17:57:55.061Z,101313.06
2023-07-18T18:00:26.680Z,101324.63
2023-07-18T18:02:57.760Z,101316.31
2023-07-18T18:05:37.761Z,101320.38
2023-07-18T18:08:06.723Z,101306.72
2023-07-18T18:10:34.848Z,101316.97
2023-07-18T18:13:06.054Z,101326.84
2023-07-18T18:15:33.923Z,101318.44
2023-07-18T18:18:02.217Z,101327.84
2023-07-18T18:20:30.684Z,101314.44
2023-07-18T18:22:58.832Z,101293.25
2023-07-18T18:25:28.304Z,101302.50
2023-07-18T18:27:56.700Z,101316.50
2023-07-18T18:30:26.158Z,101311.66
2023-07-18T18:32:54.772Z,101305.06
2023-07-18T18:35:23.084Z,101295.13
2023-07-18T18:37:50.920Z,101313.63
2023-07-18T18:40:19.604Z,101321.06
2023-07-18T18:42:47.535Z,101323.75
2023-07-18T18:45:15.995Z,101323.75
2023-07-18T18:47:47.605Z,101363.53
2023-07-18T18:50:18.146Z,101334.59
2023-07-18T18:52:46.771Z,101313.19
2023-07-18T18:55:20.160Z,101329.41
2023-07-18T18:57:48.888Z,101368.47
2023-07-18T19:00:17.776Z,101363.59
2023-07-18T19:02:47.183Z,101363.81
2023-07-18T19:05:16.062Z,101373.16
2023-07-18T19:07:43.824Z,101364.03
2023-07-18T19:10:11.789Z,101366.81
2023-07-18T19:12:40.011Z,101359.47
2023-07-18T19:15:09.346Z,101363.13
2023-07-18T19:17:37.637Z,101355.97
2023-07-18T19:20:09.409Z,101359.63
2023-07-18T19:22:37.849Z,101361.97
2023-07-18T19:25:08.933Z,101359.41
2023-07-18T19:27:37.339Z,101364.78
2023-07-18T19:30:06.188Z,101365.66
2023-07-18T19:32:34.181Z,101368.25
2023-07-18T19:35:03.678Z,101369.84
2023-07-18T19:37:34.786Z,101376.50
2023-07-18T19:40:03.576Z,101375.06
2023-07-18T19:42:31.400Z,101376.63
2023-07-18T19:45:01.527Z,101373.31
2023-07-18T19:47:29.657Z,101373.31
2023-07-18T19:49:57.521Z,101377.94
2023-07-18T19:52:26.217Z,101378.81
2023-07-18T19:54:55.501Z,101380.22
2023-07-18T19:57:24.303Z,101381.81
2023-07-18T19:59:52.929Z,101380.50
2023-07-18T20:02:20.788Z,101373.22
2023-07-18T20:04:48.954Z,101380.16
2023-07-18T20:07:16.988Z,101387.19
2023-07-18T20:09:45.768Z,101385.41
2023-07-18T20:12:15.638Z,101381.69
2023-07-18T20:14:46.038Z,101386.84
2023-07-18T20:17:14.101Z,101382.91
2023-07-18T20:19:42.203Z,101387.19
2023-07-18T20:22:10.142Z,101385.75
2023-07-18T20:24:38.021Z,101395.22
2023-07-18T20:27:06.722Z,101379.94
2023-07-18T20:29:36.750Z,101390.56
2023-07-18T20:32:05.483Z,101382.31
2023-07-18T20:34:33.485Z,101389.94
2023-07-18T20:37:01.255Z,101398.16
2023-07-18T20:39:29.101Z,101388.72
2023-07-18T20:41:57.570Z,101388.66
2023-07-18T20:44:29.904Z,101394.38
2023-07-18T20:46:59.339Z,101388.44
2023-07-18T20:49:28.089Z,101387.09
2023-07-18T20:51:55.920Z,101376.16
2023-07-18T20:54:23.793Z,101383.91
2023-07-18T20:56:52.242Z,101378.19
2023-07-18T20:59:20.314Z,101381.09
2023-07-18T21:01:48.335Z,101376.03
2023-07-18T21:04:20.817Z,101376.03
2023-07-18T21:06:48.715Z,101378.56
2023-07-18T21:09:16.487Z,101378.63
2023-07-18T21:11:45.014Z,101375.28
2023-07-18T21:14:12.943Z,101381.53
2023-07-18T21:16:41.783Z,101383.31
2023-07-18T21:19:10.309Z,101390.72
2023-07-18T21:21:40.274Z,101391.09
2023-07-18T21:24:08.076Z,101385.53
2023-07-18T21:26:35.891Z,101381.19
2023-07-18T21:29:05.558Z,101381.66
2023-07-18T21:31:34.051Z,101379.94
2023-07-18T21:34:02.552Z,101372.28
2023-07-18T21:36:30.820Z,101383.06
2023-07-18T21:39:00.095Z,101376.72
2023-07-18T21:41:30.224Z,101374.13
2023-07-18T21:43:58.085Z,101369.78
2023-07-18T21:46:26.611Z,101372.81
2023-07-18T21:48:55.183Z,101366.84
2023-07-18T21:51:23.434Z,101362.75
2023-07-18T21:53:51.230Z,101362.63
2023-07-18T21:56:21.447Z,101358.06
2023-07-18T21:58:49.513Z,101360.53
2023-07-18T22:01:17.386Z,101358.19
2023-07-18T22:03:45.415Z,101358.19
2023-07-18T22:06:13.506Z,101355.44
2023-07-18T22:08:41.347Z,101355.06
2023-07-18T22:11:09.158Z,101346.28
2023-07-18T22:13:38.500Z,101348.28
2023-07-18T22:16:06.852Z,101353.94
2023-07-18T22:18:35.453Z,101343.78
2023-07-18T22:21:04.524Z,101335.75
2023-07-18T22:23:32.443Z,101334.50
2023-07-18T22:26:13.731Z,101339.59
2023-07-18T22:28:44.223Z,101337.09
2023-07-18T22:31:13.106Z,101337.09
2023-07-18T22:33:42.206Z,101335.34
2023-07-18T22:36:10.252Z,101336.81
2023-07-18T22:38:38.136Z,101326.28
2023-07-18T22:41:05.854Z,101336.56
2023-07-18T22:43:34.156Z,101335.19
2023-07-18T22:46:03.599Z,101340.22
2023-07-18T22:48:31.460Z,101336.53
2023-07-18T22:50:59.302Z,101329.31
2023-07-18T22:53:27.335Z,101328.09
2023-07-18T22:55:55.265Z,101331.84
2023-07-18T22:58:23.137Z,101314.38
2023-07-18T23:00:51.013Z,101315.59
2023-07-18T23:03:20.436Z,101316.31
2023-07-18T23:05:48.307Z,101318.16
2023-07-18T23:08:16.271Z,101315.94
2023-07-18T23:10:44.054Z,101320.97
2023-07-18T23:13:12.837Z,101326.44
2023-07-18T23:15:42.344Z,101318.00
2023-07-18T23:18:10.124Z,101314.13
2023-07-18T23:20:39.330Z,101312.38
2023-07-18T23:23:07.298Z,101316.72
2023-07-18T23:25:35.442Z,101308.06
2023-07-18T23:28:05.602Z,101301.97
2023-07-18T23:30:33.822Z,101297.16
2023-07-18T23:33:01.784Z,101299.97
2023-07-18T23:35:29.649Z,101290.31
2023-07-18T23:37:58.979Z,101287.59
2023-07-18T23:40:26.729Z,101281.03
2023-07-18T23:42:54.498Z,101280.66
2023-07-18T23:45:22.248Z,101268.25
2023-07-18T23:47:50.076Z,101268.03
2023-07-18T23:50:18.151Z,101274.31
2023-07-18T23:52:45.983Z,101266.41
2023-07-18T23:55:15.206Z,101268.97
2023-07-18T23:57:43.216Z,101264.41
